createdAt,value
2022-08-24T00:01:10.843Z,8.40
2022-08-24T00:03:38.816Z,10.63
2022-08-24T00:06:07.596Z,9.60
2022-08-24T00:08:35.100Z,10.20
2022-08-24T00:11:02.421Z,9.90
2022-08-24T00:13:33.516Z,10.25
2022-08-24T00:16:07.088Z,10.18
2022-08-24T00:18:34.617Z,9.18
2022-08-24T00:21:02.144Z,9.27
2022-08-24T00:23:29.909Z,8.03
2022-08-24T00:25:57.771Z,9.25
2022-08-24T00:28:25.413Z,8.70
2022-08-24T00:30:53.803Z,7.70
2022-08-24T00:33:21.102Z,6.55
2022-08-24T00:35:48.389Z,6.67
2022-08-24T00:38:17.386Z,7.82
2022-08-24T00:40:48.260Z,7.80
2022-08-24T00:43:18.379Z,6.50
2022-08-24T00:45:48.737Z,7.78
2022-08-24T00:48:18.245Z,8.63
2022-08-24T00:50:48.240Z,7.30
2022-08-24T00:53:26.984Z,7.07
2022-08-24T00:55:57.369Z,7.30
2022-08-24T00:58:27.341Z,7.07
2022-08-24T01:00:57.755Z,8.20
2022-08-24T01:03:26.682Z,10.43
2022-08-24T01:05:54.064Z,9.07
2022-08-24T01:08:21.798Z,9.52
2022-08-24T01:10:52.908Z,10.00
2022-08-24T01:13:20.535Z,9.90
2022-08-24T01:15:50.664Z,10.82
2022-08-24T01:18:39.360Z,9.48
2022-08-24T01:21:27.897Z,9.57
2022-08-24T01:24:00.009Z,8.82
2022-08-24T01:26:27.395Z,8.13
2022-08-24T01:28:57.218Z,10.05
2022-08-24T01:31:25.596Z,8.55
2022-08-24T01:33:53.811Z,9.23
2022-08-24T01:36:28.302Z,9.80
2022-08-24T01:38:58.541Z,8.03
2022-08-24T01:41:29.035Z,7.10
2022-08-24T01:43:59.029Z,7.55
2022-08-24T01:46:28.000Z,8.13
2022-08-24T01:48:58.003Z,7.70
2022-08-24T01:51:25.991Z,8.83
2022-08-24T01:53:54.097Z,11.07
2022-08-24T01:56:21.421Z,10.20
2022-08-24T01:58:49.698Z,12.45
2022-08-24T02:01:18.938Z,11.82
2022-08-24T02:03:48.415Z,8.97
2022-08-24T02:06:20.201Z,10.80
2022-08-24T02:08:47.911Z,9.23
2022-08-24T02:11:15.964Z,10.75
2022-08-24T02:13:43.317Z,11.75
2022-08-24T02:16:10.761Z,11.80
2022-08-24T02:18:40.662Z,10.70
2022-08-24T02:21:09.432Z,10.57
2022-08-24T02:23:37.916Z,10.90
2022-08-24T02:26:06.116Z,11.45
2022-08-24T02:28:33.613Z,9.80
2022-08-24T02:31:01.356Z,10.20
2022-08-24T02:33:30.891Z,8.68
2022-08-24T02:35:58.986Z,8.57
2022-08-24T02:38:26.435Z,9.65
2022-08-24T02:40:53.812Z,10.87
2022-08-24T02:43:21.261Z,11.25
2022-08-24T02:45:50.538Z,11.93
2022-08-24T02:48:19.841Z,11.30
2022-08-24T02:50:48.519Z,10.40
2022-08-24T02:53:17.022Z,11.87
2022-08-24T02:55:44.956Z,10.52
2022-08-24T02:58:16.459Z,10.18
2022-08-24T03:00:46.847Z,11.23
2022-08-24T03:03:15.299Z,11.05
2022-08-24T03:05:42.657Z,10.67
2022-08-24T03:08:10.009Z,13.52
2022-08-24T03:10:39.914Z,12.82
2022-08-24T03:13:08.075Z,13.52
2022-08-24T03:15:35.620Z,12.82
2022-08-24T03:18:03.086Z,13.70
2022-08-24T03:20:31.474Z,14.50
2022-08-24T03:22:59.174Z,14.20
2022-08-24T03:25:28.052Z,12.65
2022-08-24T03:27:55.433Z,12.60
2022-08-24T03:30:23.539Z,13.60
2022-08-24T03:32:51.657Z,13.75
2022-08-24T03:35:21.819Z,14.27
2022-08-24T03:37:50.879Z,14.85
2022-08-24T03:40:23.115Z,14.93
2022-08-24T03:42:53.983Z,15.13
2022-08-24T03:45:21.918Z,15.30
2022-08-24T03:47:49.213Z,13.90
2022-08-24T03:50:16.542Z,15.43
2022-08-24T03:52:43.877Z,14.30
2022-08-24T03:55:11.413Z,14.43
2022-08-24T03:57:38.842Z,12.27
2022-08-24T04:00:08.479Z,12.80
2022-08-24T04:02:42.094Z,14.57
2022-08-24T04:05:13.288Z,15.52
2022-08-24T04:07:41.765Z,12.97
2022-08-24T04:10:09.182Z,16.23
2022-08-24T04:12:36.457Z,15.50
2022-08-24T04:15:03.848Z,15.55
2022-08-24T04:17:31.577Z,14.93
2022-08-24T04:19:59.205Z,15.50
2022-08-24T04:22:37.686Z,14.88
2022-08-24T04:25:09.245Z,14.32
2022-08-24T04:27:37.210Z,16.60
2022-08-24T04:30:05.365Z,16.42
2022-08-24T04:32:40.359Z,16.40
2022-08-24T04:35:08.674Z,13.38
2022-08-24T04:37:36.099Z,16.50
2022-08-24T04:40:04.406Z,14.25
2022-08-24T04:42:40.541Z,15.40
2022-08-24T04:45:08.745Z,14.53
2022-08-24T04:47:36.065Z,17.73
2022-08-24T04:50:04.434Z,15.43
2022-08-24T04:52:31.752Z,16.95
2022-08-24T04:54:59.451Z,17.45
2022-08-24T04:57:27.543Z,17.20
2022-08-24T04:59:57.443Z,17.00
2022-08-24T05:02:25.035Z,16.25
2022-08-24T05:04:55.290Z,16.58
2022-08-24T05:07:22.770Z,16.23
2022-08-24T05:09:52.387Z,12.37
2022-08-24T05:12:20.913Z,18.33
2022-08-24T05:14:56.430Z,17.08
2022-08-24T05:17:24.218Z,15.85
2022-08-24T05:19:51.686Z,14.02
2022-08-24T05:22:19.707Z,16.30
2022-08-24T05:24:51.349Z,22.10
2022-08-24T05:27:19.810Z,15.40
2022-08-24T05:29:53.513Z,14.00
2022-08-24T05:32:20.914Z,14.07
2022-08-24T05:34:49.411Z,13.50
2022-08-24T05:37:16.882Z,14.57
2022-08-24T05:40:03.782Z,15.30
2022-08-24T05:42:36.740Z,16.42
2022-08-24T05:45:04.485Z,17.52
2022-08-24T05:47:31.957Z,17.33
2022-08-24T05:50:08.282Z,18.15
2022-08-24T05:52:35.777Z,12.90
2022-08-24T05:55:03.345Z,18.80
2022-08-24T05:57:35.355Z,17.95
2022-08-24T06:00:12.473Z,14.97
2022-08-24T06:02:52.832Z,13.85
2022-08-24T06:05:21.434Z,16.60
2022-08-24T06:07:50.107Z,15.43
2022-08-24T06:10:35.772Z,17.27
2022-08-24T06:13:03.624Z,15.50
2022-08-24T06:15:31.317Z,14.90
2022-08-24T06:17:58.625Z,16.48
2022-08-24T06:20:26.078Z,16.77
2022-08-24T06:22:53.400Z,14.98
2022-08-24T06:25:41.518Z,17.37
2022-08-24T06:28:08.822Z,17.80
2022-08-24T06:30:36.253Z,17.13
2022-08-24T06:33:15.597Z,14.00
2022-08-24T06:35:47.623Z,15.75
2022-08-24T06:38:15.440Z,16.10
2022-08-24T06:40:45.914Z,15.40
2022-08-24T06:43:13.963Z,16.10
2022-08-24T06:45:48.619Z,16.77
2022-08-24T06:48:18.511Z,15.80
2022-08-24T06:50:47.320Z,14.93
2022-08-24T06:53:15.330Z,14.93
2022-08-24T06:55:52.080Z,14.90
2022-08-24T06:58:19.995Z,16.88
2022-08-24T07:00:47.918Z,14.82
2022-08-24T07:03:16.485Z,16.37
2022-08-24T07:05:53.114Z,16.23
2022-08-24T07:08:44.694Z,14.95
2022-08-24T07:11:15.244Z,15.55
2022-08-24T07:13:43.063Z,14.85
2022-08-24T07:16:10.767Z,13.50
2022-08-24T07:18:40.901Z,13.73
2022-08-24T07:21:09.407Z,13.05
2022-08-24T07:23:42.946Z,12.68
2022-08-24T07:26:21.439Z,11.90
2022-08-24T07:28:52.484Z,11.73
2022-08-24T07:31:21.034Z,13.27
2022-08-24T07:33:56.634Z,12.73
2022-08-24T07:36:24.817Z,13.23
2022-08-24T07:38:57.378Z,12.70
2022-08-24T07:44:13.833Z,14.27
2022-08-24T07:46:41.801Z,13.00
2022-08-24T07:49:21.566Z,12.93
2022-08-24T07:51:59.402Z,11.00
2022-08-24T07:54:28.777Z,12.83
2022-08-24T07:56:56.586Z,12.43
2022-08-24T07:59:24.162Z,11.80
2022-08-24T08:01:52.498Z,12.20
2022-08-24T08:04:22.099Z,10.63
2022-08-24T08:06:49.554Z,12.77
2022-08-24T08:09:18.099Z,10.95
2022-08-24T08:11:45.420Z,9.00
2022-08-24T08:14:14.912Z,8.60
2022-08-24T08:16:42.693Z,8.70
2022-08-24T08:19:10.565Z,7.63
2022-08-24T08:22:07.198Z,6.40
2022-08-24T08:24:43.756Z,8.80
2022-08-24T08:27:12.743Z,10.43
2022-08-24T08:29:40.912Z,10.15
2022-08-24T08:32:09.694Z,10.20
2022-08-24T08:34:37.145Z,9.38
2022-08-24T08:37:04.839Z,9.77
2022-08-24T08:39:32.313Z,8.25
2022-08-24T08:42:22.361Z,7.20
2022-08-24T08:44:50.201Z,9.10
2022-08-24T08:47:24.170Z,8.15
2022-08-24T08:49:52.036Z,8.07
2022-08-24T08:52:19.880Z,7.90
2022-08-24T08:54:48.962Z,8.95
2022-08-24T08:57:24.077Z,9.27
2022-08-24T08:59:51.486Z,9.32
2022-08-24T09:02:32.079Z,8.57
2022-08-24T09:05:20.077Z,8.00
2022-08-24T09:07:53.858Z,8.68
2022-08-24T09:10:24.772Z,8.20
2022-08-24T09:13:17.802Z,8.10
2022-08-24T09:15:49.611Z,6.60
2022-08-24T09:18:31.149Z,6.78
2022-08-24T09:21:17.011Z,6.18
2022-08-24T09:23:53.999Z,7.77
2022-08-24T09:26:29.323Z,6.00
2022-08-24T09:29:10.326Z,6.38
2022-08-24T09:31:46.205Z,6.30
2022-08-24T09:34:14.597Z,5.50
2022-08-24T09:36:53.521Z,5.87
2022-08-24T09:39:20.979Z,5.72
2022-08-24T09:42:11.106Z,5.90
2022-08-24T09:44:44.815Z,5.93
2022-08-24T09:47:30.905Z,5.40
2022-08-24T09:50:21.817Z,4.90
2022-08-24T09:52:50.322Z,4.70
2022-08-24T09:55:27.483Z,4.18
2022-08-24T09:58:00.944Z,3.70
2022-08-24T10:00:31.714Z,3.60
2022-08-24T10:03:03.032Z,3.10
2022-08-24T10:05:54.552Z,1.80
2022-08-24T10:08:21.909Z,2.58
2022-08-24T10:10:52.207Z,2.28
2022-08-24T10:13:28.792Z,2.20
2022-08-24T10:16:19.504Z,1.80
2022-08-24T10:19:07.151Z,2.35
2022-08-24T10:21:42.344Z,1.88
2022-08-24T10:24:15.389Z,1.98
2022-08-24T10:26:59.088Z,2.20
2022-08-24T10:29:44.954Z,1.73
2022-08-24T10:32:12.468Z,1.20
2022-08-24T10:34:58.613Z,1.10
2022-08-24T10:37:44.481Z,2.72
2022-08-24T10:40:28.155Z,2.80
2022-08-24T10:43:27.010Z,2.00
2022-08-24T10:45:54.648Z,1.80
2022-08-24T10:48:33.100Z,2.22
2022-08-24T10:51:19.369Z,1.20
2022-08-24T10:53:50.994Z,1.42
2022-08-24T10:56:23.623Z,1.27
2022-08-24T10:58:51.047Z,1.38
2022-08-24T11:01:21.473Z,1.55
2022-08-24T11:03:49.894Z,1.45
2022-08-24T11:06:18.405Z,1.40
2022-08-24T11:09:04.580Z,1.50
2022-08-24T11:11:40.919Z,2.08
2022-08-24T11:14:10.196Z,2.15
2022-08-24T11:16:40.084Z,1.70
2022-08-24T11:19:27.656Z,1.92
2022-08-24T11:21:56.439Z,1.80
2022-08-24T11:24:26.699Z,1.70
2022-08-24T11:26:59.367Z,3.00
2022-08-24T11:29:28.322Z,1.75
2022-08-24T11:31:55.638Z,1.48
2022-08-24T11:34:31.988Z,1.40
2022-08-24T11:36:59.901Z,1.38
2022-08-24T11:39:27.140Z,1.70
2022-08-24T11:42:00.657Z,1.40
2022-08-24T11:44:37.301Z,1.45
2022-08-24T11:47:10.734Z,1.20
2022-08-24T11:49:56.961Z,1.23
2022-08-24T11:52:34.560Z,1.42
2022-08-24T11:55:11.148Z,1.80
2022-08-24T11:57:48.279Z,1.00
2022-08-24T12:00:20.517Z,1.03
2022-08-24T12:03:01.356Z,0.90
2022-08-24T12:05:35.117Z,1.20
2022-08-24T12:08:31.573Z,1.10
2022-08-24T12:11:13.992Z,1.10
2022-08-24T12:13:50.353Z,1.30
2022-08-24T12:16:28.773Z,1.10
2022-08-24T12:19:00.070Z,0.88
2022-08-24T12:21:29.244Z,1.00
2022-08-24T12:24:08.873Z,0.70
2022-08-24T12:26:44.861Z,0.80
2022-08-24T12:29:29.230Z,0.70
2022-08-24T12:32:07.939Z,0.80
2022-08-24T12:34:38.309Z,0.73
2022-08-24T12:37:16.529Z,0.70
2022-08-24T12:39:53.083Z,0.90
2022-08-24T12:42:28.296Z,0.60
2022-08-24T12:45:30.010Z,0.55
2022-08-24T12:48:15.445Z,0.70
2022-08-24T12:50:46.460Z,0.60
2022-08-24T12:53:19.960Z,0.60
2022-08-24T12:55:55.042Z,0.60
2022-08-24T12:58:41.067Z,0.65
2022-08-24T13:01:27.876Z,0.70
2022-08-24T13:04:23.422Z,0.70
2022-08-24T13:06:55.289Z,0.57
2022-08-24T13:09:27.807Z,0.60
2022-08-24T13:11:56.851Z,0.70
2022-08-24T13:14:26.376Z,0.80
2022-08-24T13:16:56.768Z,1.00
2022-08-24T13:19:24.082Z,1.10
2022-08-24T13:21:53.313Z,1.08
2022-08-24T13:24:30.747Z,1.00
2022-08-24T13:27:18.227Z,1.33
2022-08-24T13:29:50.295Z,0.90
2022-08-24T13:32:39.039Z,0.80
2022-08-24T13:35:25.151Z,1.08
2022-08-24T13:38:15.379Z,1.02
2022-08-24T13:40:51.132Z,1.10
2022-08-24T13:43:28.730Z,0.90
2022-08-24T13:45:56.217Z,1.07
2022-08-24T13:48:43.157Z,1.08
2022-08-24T13:51:16.921Z,1.30
2022-08-24T13:53:56.085Z,0.93
2022-08-24T13:56:33.331Z,0.98
2022-08-24T13:59:09.930Z,1.07
2022-08-24T14:01:52.553Z,1.08
2022-08-24T14:04:19.879Z,0.80
2022-08-24T14:07:06.092Z,0.70
2022-08-24T14:09:38.010Z,0.80
2022-08-24T14:12:07.542Z,0.80
2022-08-24T14:14:40.959Z,0.80
2022-08-24T14:17:35.474Z,0.70
2022-08-24T14:20:09.115Z,1.00
2022-08-24T14:23:12.055Z,0.98
2022-08-24T14:25:39.407Z,0.70
2022-08-24T14:28:25.433Z,0.95
2022-08-24T14:31:11.741Z,1.48
2022-08-24T14:33:44.932Z,1.58
2022-08-24T14:36:25.376Z,0.90
2022-08-24T14:38:58.553Z,0.83
2022-08-24T14:41:34.385Z,1.13
2022-08-24T14:44:06.307Z,0.70
2022-08-24T14:46:47.485Z,0.80
2022-08-24T14:49:27.173Z,0.73
2022-08-24T14:52:00.688Z,0.80
2022-08-24T14:54:31.518Z,0.50
2022-08-24T14:57:15.244Z,1.17
2022-08-24T14:59:58.583Z,0.80
2022-08-24T15:02:34.781Z,1.05
2022-08-24T15:05:02.175Z,0.70
2022-08-24T15:07:31.424Z,0.77
2022-08-24T15:09:59.542Z,0.55
2022-08-24T15:12:33.059Z,0.82
2022-08-24T15:15:08.165Z,0.70
2022-08-24T15:17:57.047Z,0.93
2022-08-24T15:20:33.490Z,0.85
2022-08-24T15:23:12.919Z,0.80
2022-08-24T15:25:44.498Z,0.85
2022-08-24T15:28:28.728Z,0.65
2022-08-24T15:31:01.501Z,0.90
2022-08-24T15:33:30.105Z,1.20
2022-08-24T15:36:20.776Z,0.60
2022-08-24T15:38:48.803Z,0.60
2022-08-24T15:41:16.075Z,0.70
2022-08-24T15:43:49.199Z,0.50
2022-08-24T15:46:19.910Z,3.92
2022-08-24T15:48:48.229Z,1.70
2022-08-24T15:51:31.648Z,0.95
2022-08-24T15:53:58.979Z,0.90
2022-08-24T15:56:29.766Z,0.90
2022-08-24T15:59:07.175Z,0.85
2022-08-24T16:01:53.175Z,0.93
2022-08-24T16:05:01.397Z,1.02
2022-08-24T16:07:34.872Z,0.98
2022-08-24T16:10:06.355Z,1.30
2022-08-24T16:12:33.769Z,0.90
2022-08-24T16:15:20.168Z,0.90
2022-08-24T16:17:51.786Z,1.30
2022-08-24T16:20:22.084Z,1.00
2022-08-24T16:23:00.525Z,1.00
2022-08-24T16:25:28.107Z,1.10
2022-08-24T16:28:10.065Z,1.00
2022-08-24T16:30:37.810Z,1.00
2022-08-24T16:33:06.264Z,0.80
2022-08-24T16:35:33.843Z,0.80
2022-08-24T16:38:01.547Z,0.90
2022-08-24T16:40:30.614Z,1.00
2022-08-24T16:42:58.536Z,1.50
2022-08-24T16:45:25.899Z,1.00
2022-08-24T16:47:53.157Z,0.97
2022-08-24T16:50:20.940Z,0.90
2022-08-24T16:52:49.490Z,1.00
2022-08-24T16:55:16.809Z,1.20
2022-08-24T16:57:44.313Z,1.23
2022-08-24T17:00:15.485Z,0.90
2022-08-24T17:02:43.170Z,1.20
2022-08-24T17:05:10.810Z,1.25
2022-08-24T17:07:38.323Z,1.70
2022-08-24T17:10:06.629Z,1.30
2022-08-24T17:12:36.062Z,1.20
2022-08-24T17:15:04.921Z,1.40
2022-08-24T17:17:32.497Z,1.10
2022-08-24T17:20:00.310Z,1.20
2022-08-24T17:22:27.724Z,1.35
2022-08-24T17:24:55.446Z,1.40
2022-08-24T17:27:27.042Z,1.40
2022-08-24T17:29:54.303Z,1.15
2022-08-24T17:32:21.669Z,1.58
2022-08-24T17:34:49.000Z,1.17
2022-08-24T17:37:16.349Z,3.73
2022-08-24T17:39:43.585Z,1.80
2022-08-24T17:42:28.161Z,1.35
2022-08-24T17:44:59.250Z,1.52
2022-08-24T17:47:26.616Z,1.25
2022-08-24T17:49:53.900Z,1.40
2022-08-24T17:52:21.184Z,1.50
2022-08-24T17:54:48.479Z,1.23
2022-08-24T17:57:15.853Z,1.50
2022-08-24T17:59:44.057Z,2.63
2022-08-24T18:02:14.962Z,2.03
2022-08-24T18:04:43.853Z,1.70
2022-08-24T18:07:12.792Z,1.60
2022-08-24T18:09:48.219Z,2.05
2022-08-24T18:12:16.501Z,2.40
2022-08-24T18:14:43.861Z,1.97
2022-08-24T18:17:13.923Z,1.45
2022-08-24T18:19:41.726Z,1.80
2022-08-24T18:22:09.142Z,1.67
2022-08-24T18:24:36.713Z,1.95
2022-08-24T18:27:10.082Z,1.50
2022-08-24T18:29:39.442Z,1.70
2022-08-24T18:32:07.186Z,1.70
2022-08-24T18:34:34.685Z,4.65
2022-08-24T18:37:02.348Z,5.13
2022-08-24T18:39:29.743Z,4.63
2022-08-24T18:41:58.772Z,2.47
2022-08-24T18:44:31.088Z,9.02
2022-08-24T18:46:59.495Z,3.35
2022-08-24T18:49:26.897Z,2.47
2022-08-24T18:51:54.220Z,1.47
2022-08-24T18:54:22.492Z,1.80
2022-08-24T18:56:50.101Z,1.48
2022-08-24T18:59:18.729Z,1.55
2022-08-24T19:02:06.151Z,1.50
2022-08-24T19:04:33.945Z,3.87
2022-08-24T19:07:01.674Z,1.90
2022-08-24T19:09:33.929Z,1.80
2022-08-24T19:12:02.404Z,1.75
2022-08-24T19:14:29.767Z,1.55
2022-08-24T19:16:57.122Z,1.90
2022-08-24T19:19:24.425Z,1.83
2022-08-24T19:21:51.713Z,1.98
2022-08-24T19:24:25.059Z,2.15
2022-08-24T19:26:52.469Z,1.75
2022-08-24T19:29:38.961Z,1.93
2022-08-24T19:32:10.129Z,1.85
2022-08-24T19:34:49.248Z,1.60
2022-08-24T19:37:16.761Z,1.80
2022-08-24T19:39:44.105Z,1.70
2022-08-24T19:42:13.314Z,2.20
2022-08-24T19:44:59.228Z,2.60
2022-08-24T19:47:26.604Z,2.25
2022-08-24T19:49:54.347Z,2.00
2022-08-24T19:52:22.238Z,2.65
2022-08-24T19:54:49.522Z,2.70
2022-08-24T19:57:22.838Z,4.53
2022-08-24T19:59:51.494Z,6.00
2022-08-24T20:02:19.247Z,3.30
2022-08-24T20:04:46.608Z,2.20
2022-08-24T20:07:15.876Z,2.67
2022-08-24T20:09:43.271Z,2.25
2022-08-24T20:12:11.613Z,2.53
2022-08-24T20:14:38.867Z,2.88
2022-08-24T20:17:06.478Z,2.35
2022-08-24T20:19:35.891Z,2.80
2022-08-24T20:22:03.165Z,2.20
2022-08-24T20:24:40.726Z,2.88
2022-08-24T20:27:08.001Z,3.08
2022-08-24T20:29:35.368Z,3.20
2022-08-24T20:32:02.751Z,2.80
2022-08-24T20:34:30.078Z,2.40
2022-08-24T20:36:58.543Z,2.88
2022-08-24T20:39:27.163Z,2.78
2022-08-24T20:41:54.537Z,2.78
2022-08-24T20:44:22.517Z,2.63
2022-08-24T20:46:50.736Z,2.50
2022-08-24T20:49:19.424Z,3.10
2022-08-24T20:51:46.857Z,2.55
2022-08-24T20:54:14.838Z,3.33
2022-08-24T20:56:44.036Z,3.47
2022-08-24T20:59:12.026Z,3.38
2022-08-24T21:01:41.501Z,3.80
2022-08-24T21:04:09.475Z,3.08
2022-08-24T21:06:37.257Z,4.10
2022-08-24T21:09:05.502Z,3.03
2022-08-24T21:11:33.007Z,4.00
2022-08-24T21:14:00.966Z,3.85
2022-08-24T21:16:28.292Z,4.07
2022-08-24T21:18:55.651Z,3.50
2022-08-24T21:21:22.972Z,3.93
2022-08-24T21:23:50.379Z,4.22
2022-08-24T21:26:21.362Z,3.83
2022-08-24T21:28:48.824Z,5.28
2022-08-24T21:31:16.079Z,5.28
2022-08-24T21:34:02.037Z,4.07
2022-08-24T21:36:31.857Z,4.20
2022-08-24T21:38:59.566Z,4.35
2022-08-24T21:41:29.292Z,3.45
2022-08-24T21:43:57.122Z,3.67
2022-08-24T21:46:29.487Z,4.03
2022-08-24T21:48:56.832Z,3.75
2022-08-24T21:51:24.216Z,3.40
2022-08-24T21:53:51.466Z,4.50
2022-08-24T21:56:25.161Z,3.75
2022-08-24T21:58:52.773Z,4.47
2022-08-24T22:01:20.846Z,4.15
2022-08-24T22:03:48.492Z,5.13
2022-08-24T22:06:15.812Z,4.50
2022-08-24T22:08:44.080Z,4.65
2022-08-24T22:11:12.522Z,4.30
2022-08-24T22:13:39.957Z,5.20
2022-08-24T22:16:07.491Z,4.40
2022-08-24T22:18:35.631Z,5.40
2022-08-24T22:21:10.427Z,4.80
2022-08-24T22:23:38.222Z,5.40
2022-08-24T22:26:05.970Z,5.70
2022-08-24T22:28:34.765Z,4.93
2022-08-24T22:31:02.303Z,5.35
2022-08-24T22:33:29.791Z,5.00
2022-08-24T22:35:57.015Z,5.50
2022-08-24T22:38:24.941Z,4.97
2022-08-24T22:40:55.458Z,4.82
2022-08-24T22:43:25.105Z,5.15
2022-08-24T22:45:52.586Z,5.20
2022-08-24T22:48:19.862Z,4.40
2022-08-24T22:50:47.165Z,6.00
2022-08-24T22:53:15.580Z,5.30
2022-08-24T22:55:42.865Z,4.68
2022-08-24T22:58:10.128Z,4.28
2022-08-24T23:00:39.515Z,5.80
2022-08-24T23:03:06.817Z,5.18
2022-08-24T23:05:34.112Z,5.60
2022-08-24T23:08:01.898Z,6.15
2022-08-24T23:10:29.190Z,5.72
2022-08-24T23:12:56.517Z,6.90
2022-08-24T23:15:23.813Z,5.70
2022-08-24T23:17:53.518Z,6.05
2022-08-24T23:20:20.938Z,5.97
2022-08-24T23:22:49.904Z,5.88
2022-08-24T23:25:17.161Z,6.93
2022-08-24T23:27:48.058Z,5.85
2022-08-24T23:30:17.388Z,5.72
2022-08-24T23:32:44.715Z,7.05
2022-08-24T23:35:12.041Z,5.68
2022-08-24T23:37:39.345Z,7.13
2022-08-24T23:40:07.089Z,6.82
2022-08-24T23:42:34.425Z,5.85
2022-08-24T23:45:01.768Z,6.07
2022-08-24T23:47:29.595Z,6.88
2022-08-24T23:49:56.976Z,5.80
2022-08-24T23:52:28.207Z,5.32
2022-08-24T23:54:56.265Z,5.88
2022-08-24T23:57:39.648Z,6.03
